createdAt,value
2018-11-06T00:01:20.877Z,25.07
2018-11-06T00:03:58.838Z,27.63
2018-11-06T00:06:32.916Z,25.70
2018-11-06T00:09:07.877Z,24.20
2018-11-06T00:11:41.462Z,23.03
2018-11-06T00:14:16.804Z,23.33
2018-11-06T00:16:50.529Z,23.63
2018-11-06T00:19:24.909Z,23.73
2018-11-06T00:21:59.791Z,23.77
2018-11-06T00:24:33.604Z,23.03
2018-11-06T00:27:07.039Z,24.17
2018-11-06T00:29:43.498Z,25.57
2018-11-06T00:32:17.268Z,22.73
2018-11-06T00:34:50.943Z,25.68
2018-11-06T00:37:25.353Z,25.73
2018-11-06T00:40:00.060Z,21.07
2018-11-06T00:42:33.782Z,31.80
2018-11-06T00:45:08.004Z,31.23
2018-11-06T00:47:42.194Z,25.90
2018-11-06T00:52:55.446Z,23.37
2018-11-06T00:55:30.283Z,26.05
2018-11-06T00:58:04.548Z,23.53
2018-11-06T01:00:38.580Z,19.98
2018-11-06T01:03:13.669Z,20.07
2018-11-06T01:05:48.132Z,19.90
2018-11-06T01:08:21.769Z,20.37
2018-11-06T01:10:56.430Z,20.37
2018-11-06T01:13:31.133Z,13.90
2018-11-06T01:16:05.121Z,15.63
2018-11-06T01:18:38.923Z,16.87
2018-11-06T01:21:13.384Z,12.45
2018-11-06T01:23:47.461Z,15.25
2018-11-06T01:26:21.348Z,10.80
2018-11-06T01:28:55.307Z,11.45
2018-11-06T01:31:29.390Z,14.93
2018-11-06T01:34:04.392Z,10.90
2018-11-06T01:36:38.035Z,10.90
2018-11-06T01:39:13.462Z,11.60
2018-11-06T01:41:49.243Z,8.87
2018-11-06T01:44:23.199Z,12.27
2018-11-06T01:46:58.592Z,10.57
2018-11-06T01:49:33.478Z,13.17
2018-11-06T01:52:07.617Z,10.00
2018-11-06T01:54:43.308Z,13.37
2018-11-06T01:57:18.129Z,10.03
2018-11-06T01:59:52.375Z,10.80
2018-11-06T02:02:26.597Z,10.10
2018-11-06T02:05:02.307Z,8.80
2018-11-06T02:07:37.579Z,10.30
2018-11-06T02:10:13.247Z,9.77
2018-11-06T02:12:48.908Z,10.90
2018-11-06T02:15:23.182Z,11.90
2018-11-06T02:17:57.361Z,12.33
2018-11-06T02:20:32.884Z,12.03
2018-11-06T02:23:09.598Z,10.82
2018-11-06T02:25:44.701Z,9.78
2018-11-06T02:28:18.398Z,14.13
2018-11-06T02:30:52.319Z,10.30
2018-11-06T02:33:26.208Z,9.47
2018-11-06T02:35:59.953Z,9.30
2018-11-06T02:38:34.653Z,8.60
2018-11-06T02:41:08.623Z,9.87
2018-11-06T02:43:42.786Z,9.70
2018-11-06T02:46:16.630Z,9.60
2018-11-06T02:48:51.040Z,11.38
2018-11-06T02:51:25.210Z,9.80
2018-11-06T02:54:00.223Z,13.20
2018-11-06T02:56:33.964Z,13.23
2018-11-06T02:59:08.087Z,10.45
2018-11-06T03:01:42.469Z,9.07
2018-11-06T03:04:16.659Z,9.73
2018-11-06T03:06:52.109Z,11.00
2018-11-06T03:09:26.134Z,10.35
2018-11-06T03:12:00.082Z,12.07
2018-11-06T03:14:33.881Z,12.23
2018-11-06T03:17:08.225Z,13.83
2018-11-06T03:19:42.272Z,10.80
2018-11-06T03:22:16.438Z,10.27
2018-11-06T03:24:50.955Z,9.50
2018-11-06T03:27:25.280Z,10.97
2018-11-06T03:29:59.293Z,10.83
2018-11-06T03:32:33.545Z,10.65
2018-11-06T03:35:07.204Z,10.40
2018-11-06T03:37:41.492Z,8.68
2018-11-06T03:40:17.568Z,9.43
2018-11-06T03:42:51.751Z,11.17
2018-11-06T03:45:26.156Z,10.45
2018-11-06T03:48:00.256Z,9.70
2018-11-06T03:50:34.217Z,11.10
2018-11-06T03:53:08.261Z,11.80
2018-11-06T03:55:42.772Z,9.80
2018-11-06T03:58:16.830Z,11.03
2018-11-06T04:00:51.308Z,10.50
2018-11-06T04:03:25.210Z,9.13
2018-11-06T04:05:59.182Z,10.00
2018-11-06T04:08:34.753Z,7.77
2018-11-06T04:11:09.858Z,9.50
2018-11-06T04:13:44.211Z,10.63
2018-11-06T04:16:18.401Z,9.68
2018-11-06T04:18:52.544Z,8.95
2018-11-06T04:21:32.704Z,10.65
2018-11-06T04:24:09.074Z,9.40
2018-11-06T04:26:43.398Z,12.50
2018-11-06T04:29:17.193Z,10.13
2018-11-06T04:31:52.691Z,10.58
2018-11-06T04:34:26.558Z,12.87
2018-11-06T04:37:01.019Z,9.53
2018-11-06T04:39:35.454Z,9.13
2018-11-06T04:42:10.317Z,10.82
2018-11-06T04:44:43.958Z,8.92
2018-11-06T04:47:18.029Z,11.05
2018-11-06T04:49:52.082Z,9.65
2018-11-06T04:52:25.987Z,9.40
2018-11-06T04:55:00.424Z,7.92
2018-11-06T04:57:34.369Z,10.53
2018-11-06T05:00:11.234Z,9.87
2018-11-06T05:02:45.848Z,10.55
2018-11-06T05:05:19.747Z,10.17
2018-11-06T05:07:54.192Z,9.17
2018-11-06T05:10:34.521Z,11.27
2018-11-06T05:13:08.887Z,11.10
2018-11-06T05:15:42.832Z,10.98
2018-11-06T05:18:17.793Z,13.15
2018-11-06T05:20:54.108Z,13.15
2018-11-06T05:23:28.894Z,12.50
2018-11-06T05:26:02.682Z,14.27
2018-11-06T05:28:36.570Z,12.33
2018-11-06T05:31:10.542Z,12.70
2018-11-06T05:33:44.484Z,13.75
2018-11-06T05:36:19.702Z,11.97
2018-11-06T05:38:53.421Z,14.35
2018-11-06T05:41:29.514Z,15.43
2018-11-06T05:44:03.603Z,11.83
2018-11-06T05:46:38.057Z,12.60
2018-11-06T05:49:11.769Z,11.63
2018-11-06T05:51:46.076Z,13.85
2018-11-06T05:54:19.799Z,12.98
2018-11-06T05:56:54.322Z,11.35
2018-11-06T05:59:27.964Z,13.20
2018-11-06T06:02:02.367Z,12.57
2018-11-06T06:04:36.156Z,14.00
2018-11-06T06:07:10.015Z,13.75
2018-11-06T06:09:43.538Z,13.97
2018-11-06T06:12:18.541Z,11.33
2018-11-06T06:14:52.849Z,13.67
2018-11-06T06:17:26.840Z,14.87
2018-11-06T06:20:00.925Z,13.18
2018-11-06T06:22:35.762Z,11.93
2018-11-06T06:25:10.894Z,13.22
2018-11-06T06:27:46.331Z,13.10
2018-11-06T06:30:20.192Z,14.80
2018-11-06T06:32:55.439Z,11.30
2018-11-06T06:35:29.339Z,12.20
2018-11-06T06:38:03.504Z,12.50
2018-11-06T06:40:37.258Z,14.20
2018-11-06T06:43:11.396Z,12.27
2018-11-06T06:45:45.205Z,11.65
2018-11-06T06:48:21.065Z,13.20
2018-11-06T06:50:54.947Z,12.07
2018-11-06T06:53:29.016Z,13.37
2018-11-06T06:56:03.001Z,13.55
2018-11-06T06:58:36.752Z,12.07
2018-11-06T07:01:10.796Z,11.60
2018-11-06T07:03:44.930Z,11.73
2018-11-06T07:06:18.832Z,12.70
2018-11-06T07:08:52.818Z,11.10
2018-11-06T07:11:27.256Z,12.15
2018-11-06T07:14:02.543Z,12.43
2018-11-06T07:16:36.483Z,12.63
2018-11-06T07:19:10.522Z,10.50
2018-11-06T07:21:45.033Z,12.05
2018-11-06T07:24:19.358Z,10.75
2018-11-06T07:26:53.768Z,10.45
2018-11-06T07:29:27.810Z,11.67
2018-11-06T07:32:02.417Z,10.80
2018-11-06T07:34:36.504Z,12.05
2018-11-06T07:37:11.521Z,9.85
2018-11-06T07:39:45.334Z,10.72
2018-11-06T07:42:18.888Z,11.27
2018-11-06T07:44:52.728Z,12.67
2018-11-06T07:47:27.078Z,10.15
2018-11-06T07:50:00.943Z,10.45
2018-11-06T07:52:35.713Z,10.50
2018-11-06T07:55:10.444Z,11.00
2018-11-06T07:57:44.530Z,9.97
2018-11-06T08:00:24.189Z,11.15
2018-11-06T08:02:58.379Z,11.43
2018-11-06T08:05:32.586Z,13.03
2018-11-06T08:08:07.284Z,11.50
2018-11-06T08:10:41.546Z,10.47
2018-11-06T08:13:15.326Z,9.83
2018-11-06T08:15:50.899Z,10.98
2018-11-06T08:18:24.652Z,11.47
2018-11-06T08:20:59.727Z,11.57
2018-11-06T08:23:34.168Z,11.83
2018-11-06T08:26:10.251Z,10.98
2018-11-06T08:28:44.557Z,12.45
2018-11-06T08:31:19.227Z,11.83
2018-11-06T08:33:53.391Z,11.00
2018-11-06T08:36:27.564Z,11.33
2018-11-06T08:39:01.467Z,12.03
2018-11-06T08:41:35.412Z,11.30
2018-11-06T08:44:09.866Z,10.50
2018-11-06T08:46:43.753Z,9.80
2018-11-06T08:49:17.933Z,11.56
2018-11-06T08:51:52.425Z,11.43
2018-11-06T08:54:26.197Z,10.70
2018-11-06T08:57:01.212Z,11.97
2018-11-06T08:59:35.115Z,11.60
2018-11-06T09:02:08.906Z,10.60
2018-11-06T09:04:43.109Z,11.30
2018-11-06T09:07:17.124Z,12.15
2018-11-06T09:09:50.838Z,11.23
2018-11-06T09:12:24.994Z,11.83
2018-11-06T09:15:01.366Z,11.72
2018-11-06T09:17:36.289Z,10.00
2018-11-06T09:20:10.330Z,12.43
2018-11-06T09:22:43.957Z,10.60
2018-11-06T09:25:19.659Z,9.85
2018-11-06T09:27:54.045Z,9.93
2018-11-06T09:30:29.991Z,9.50
2018-11-06T09:33:04.069Z,10.60
2018-11-06T09:35:39.661Z,8.98
2018-11-06T09:38:13.254Z,10.38
2018-11-06T09:40:47.527Z,9.27
2018-11-06T09:43:21.528Z,11.20
2018-11-06T09:45:55.990Z,9.93
2018-11-06T09:48:29.921Z,9.63
2018-11-06T09:51:03.944Z,9.60
2018-11-06T09:53:38.286Z,11.20
2018-11-06T09:56:12.885Z,10.27
2018-11-06T09:58:46.856Z,9.45
2018-11-06T10:01:20.960Z,10.60
2018-11-06T10:03:56.386Z,10.67
2018-11-06T10:06:30.610Z,11.40
2018-11-06T10:09:05.815Z,11.60
2018-11-06T10:11:39.785Z,9.43
2018-11-06T10:14:13.494Z,8.87
2018-11-06T10:16:47.330Z,10.13
2018-11-06T10:19:22.951Z,11.10
2018-11-06T10:21:56.712Z,10.07
2018-11-06T10:24:31.883Z,10.15
2018-11-06T10:27:05.843Z,11.80
2018-11-06T10:29:39.976Z,9.27
2018-11-06T10:32:15.138Z,11.50
2018-11-06T10:34:50.037Z,10.80
2018-11-06T10:37:23.800Z,10.30
2018-11-06T10:39:57.822Z,10.97
2018-11-06T10:42:32.200Z,13.43
2018-11-06T10:45:06.395Z,11.57
2018-11-06T10:47:40.530Z,12.53
2018-11-06T10:50:15.582Z,13.60
2018-11-06T10:52:50.082Z,13.47
2018-11-06T10:55:26.707Z,11.60
2018-11-06T10:58:00.363Z,14.55
2018-11-06T11:00:38.091Z,13.37
2018-11-06T11:03:16.889Z,13.00
2018-11-06T11:05:50.941Z,13.40
2018-11-06T11:08:24.872Z,11.53
2018-11-06T11:10:58.811Z,12.20
2018-11-06T11:13:32.984Z,14.23
2018-11-06T11:16:06.753Z,12.30
2018-11-06T11:18:40.798Z,11.80
2018-11-06T11:21:16.193Z,11.88
2018-11-06T11:23:50.227Z,11.15
2018-11-06T11:26:24.218Z,12.97
2018-11-06T11:28:58.369Z,12.80
2018-11-06T11:31:33.406Z,12.17
2018-11-06T11:34:07.941Z,12.23
2018-11-06T11:36:42.311Z,11.80
2018-11-06T11:39:16.661Z,14.40
2018-11-06T11:41:51.063Z,12.67
2018-11-06T11:44:25.957Z,13.32
2018-11-06T11:47:00.091Z,13.03
2018-11-06T11:49:33.916Z,13.13
2018-11-06T11:52:08.159Z,16.30
2018-11-06T11:54:42.519Z,14.50
2018-11-06T11:57:16.875Z,16.77
2018-11-06T11:59:50.813Z,19.13
2018-11-06T12:02:25.165Z,16.97
2018-11-06T12:04:59.523Z,16.03
2018-11-06T12:07:34.122Z,19.50
2018-11-06T12:10:08.378Z,16.77
2018-11-06T12:12:42.753Z,16.13
2018-11-06T12:15:18.510Z,16.10
2018-11-06T12:17:52.613Z,15.13
2018-11-06T12:20:26.615Z,14.35
2018-11-06T12:23:01.496Z,14.43
2018-11-06T12:25:36.484Z,14.67
2018-11-06T12:28:10.348Z,14.13
2018-11-06T12:30:45.010Z,15.77
2018-11-06T12:33:19.910Z,15.57
2018-11-06T12:35:54.468Z,16.77
2018-11-06T12:38:28.280Z,14.63
2018-11-06T12:44:26.034Z,13.13
2018-11-06T12:46:59.881Z,12.60
2018-11-06T12:49:33.616Z,16.13
2018-11-06T12:52:07.351Z,15.57
2018-11-06T12:54:41.627Z,14.70
2018-11-06T12:57:15.689Z,16.97
2018-11-06T12:59:50.091Z,14.67
2018-11-06T13:02:25.793Z,16.27
2018-11-06T13:04:59.802Z,17.90
2018-11-06T13:07:33.915Z,16.80
2018-11-06T13:10:07.386Z,16.63
2018-11-06T13:12:41.983Z,17.47
2018-11-06T13:15:17.488Z,17.87
2018-11-06T13:17:50.142Z,18.53
2018-11-06T13:20:23.998Z,15.67
2018-11-06T13:22:57.614Z,20.27
2018-11-06T13:25:33.389Z,17.20
2018-11-06T13:28:07.367Z,17.20
2018-11-06T13:30:41.371Z,16.50
2018-11-06T13:33:15.775Z,18.73
2018-11-06T13:35:49.411Z,17.50
2018-11-06T13:38:23.895Z,16.80
2018-11-06T13:40:58.386Z,17.37
2018-11-06T13:43:32.356Z,18.60
2018-11-06T13:46:06.813Z,19.83
2018-11-06T13:48:41.057Z,18.97
2018-11-06T13:51:15.221Z,18.57
2018-11-06T13:53:49.047Z,18.53
2018-11-06T13:56:24.801Z,18.93
2018-11-06T13:58:58.786Z,20.13
2018-11-06T14:01:33.757Z,20.95
2018-11-06T14:04:08.097Z,19.70
2018-11-06T14:06:41.956Z,19.17
2018-11-06T14:09:16.004Z,19.57
2018-11-06T14:11:51.072Z,16.33
2018-11-06T14:14:25.602Z,18.95
2018-11-06T14:16:59.564Z,22.13
2018-11-06T14:19:33.853Z,20.50
2018-11-06T14:22:09.004Z,19.47
2018-11-06T14:24:43.962Z,18.97
2018-11-06T14:27:19.159Z,20.25
2018-11-06T14:29:52.845Z,17.17
2018-11-06T14:32:26.929Z,17.77
2018-11-06T14:35:00.964Z,15.87
2018-11-06T14:37:35.504Z,15.60
2018-11-06T14:40:11.599Z,18.63
2018-11-06T14:42:47.361Z,16.70
2018-11-06T14:45:22.307Z,13.87
2018-11-06T14:47:56.414Z,15.83
2018-11-06T14:50:30.211Z,14.97
2018-11-06T14:53:04.358Z,14.63
2018-11-06T14:55:38.218Z,14.73
2018-11-06T14:58:12.380Z,16.23
2018-11-06T15:00:48.862Z,13.50
2018-11-06T15:03:22.592Z,14.80
2018-11-06T15:05:56.059Z,14.70
2018-11-06T15:08:29.927Z,14.77
2018-11-06T15:11:03.670Z,14.47
2018-11-06T15:13:37.167Z,14.53
2018-11-06T15:16:10.924Z,15.03
2018-11-06T15:18:46.044Z,15.90
2018-11-06T15:21:20.098Z,16.73
2018-11-06T15:23:53.709Z,17.80
2018-11-06T15:26:30.337Z,16.50
2018-11-06T15:29:04.996Z,14.87
2018-11-06T15:31:38.699Z,15.27
2018-11-06T15:39:14.174Z,12.67
2018-11-06T15:41:47.860Z,15.60
2018-11-06T15:44:22.001Z,13.85
2018-11-06T15:46:56.974Z,12.75
2018-11-06T15:49:30.546Z,13.93
2018-11-06T15:52:05.540Z,17.90
2018-11-06T15:54:39.349Z,13.47
2018-11-06T15:57:13.381Z,13.33
2018-11-06T15:59:47.074Z,13.73
2018-11-06T16:02:20.962Z,13.97
2018-11-06T16:04:55.904Z,15.05
2018-11-06T16:07:29.292Z,16.70
2018-11-06T16:10:05.326Z,15.32
2018-11-06T16:12:39.275Z,14.70
2018-11-06T16:15:12.987Z,15.20
2018-11-06T16:17:46.942Z,14.47
2018-11-06T16:20:21.741Z,16.47
2018-11-06T16:22:55.837Z,15.37
2018-11-06T16:25:29.479Z,15.67
2018-11-06T16:28:03.520Z,14.00
2018-11-06T16:30:38.545Z,15.37
2018-11-06T16:33:11.886Z,13.77
2018-11-06T16:35:45.940Z,15.10
2018-11-06T16:38:19.992Z,14.73
2018-11-06T16:40:54.076Z,15.10
2018-11-06T16:43:28.078Z,12.87
2018-11-06T16:46:03.267Z,14.47
2018-11-06T16:48:36.980Z,14.13
2018-11-06T16:51:11.059Z,14.73
2018-11-06T16:53:44.638Z,15.17
2018-11-06T16:56:18.773Z,13.33
2018-11-06T16:58:52.832Z,12.83
2018-11-06T17:01:26.338Z,13.40
2018-11-06T17:04:01.249Z,15.97
2018-11-06T17:06:52.211Z,16.43
2018-11-06T17:09:25.920Z,15.58
2018-11-06T17:11:59.659Z,12.97
2018-11-06T17:14:33.875Z,13.93
2018-11-06T17:17:07.738Z,15.40
2018-11-06T17:19:42.382Z,12.53
2018-11-06T17:22:16.936Z,13.17
2018-11-06T17:24:51.095Z,13.77
2018-11-06T17:27:25.477Z,13.73
2018-11-06T17:30:00.550Z,15.30
2018-11-06T17:32:38.120Z,14.47
2018-11-06T17:35:13.788Z,13.65
2018-11-06T17:37:48.011Z,13.83
2018-11-06T17:40:22.779Z,12.10
2018-11-06T17:42:57.375Z,13.20
2018-11-06T17:45:31.798Z,12.97
2018-11-06T17:48:05.798Z,12.80
2018-11-06T17:50:39.745Z,12.97
2018-11-06T17:53:13.671Z,12.53
2018-11-06T17:55:48.645Z,14.17
2018-11-06T17:58:22.424Z,13.23
2018-11-06T18:00:56.382Z,13.97
2018-11-06T18:03:30.093Z,13.00
2018-11-06T18:06:04.088Z,14.77
2018-11-06T18:08:39.823Z,14.40
2018-11-06T18:11:14.107Z,16.43
2018-11-06T18:13:48.932Z,15.20
2018-11-06T18:16:23.315Z,14.93
2018-11-06T18:18:57.211Z,16.37
2018-11-06T18:21:31.148Z,19.90
2018-11-06T18:24:06.085Z,16.47
2018-11-06T18:26:41.482Z,14.43
2018-11-06T18:29:15.907Z,16.67
2018-11-06T18:31:49.839Z,16.13
2018-11-06T18:34:25.179Z,14.80
2018-11-06T18:36:59.068Z,15.55
2018-11-06T18:39:34.416Z,19.63
2018-11-06T18:42:08.760Z,19.50
2018-11-06T18:44:42.912Z,18.10
2018-11-06T18:47:16.965Z,19.27
2018-11-06T18:49:50.704Z,21.90
2018-11-06T18:52:24.620Z,20.37
2018-11-06T18:54:58.424Z,22.57
2018-11-06T18:57:32.229Z,20.17
2018-11-06T19:00:06.120Z,20.00
2018-11-06T19:02:40.866Z,18.77
2018-11-06T19:05:16.236Z,19.30
2018-11-06T19:07:50.181Z,18.73
2018-11-06T19:10:24.531Z,17.03
2018-11-06T19:12:58.439Z,17.30
2018-11-06T19:15:32.339Z,19.50
2018-11-06T19:18:06.054Z,17.03
2018-11-06T19:20:41.368Z,16.30
2018-11-06T19:23:15.511Z,18.03
2018-11-06T19:25:49.950Z,18.77
2018-11-06T19:28:24.091Z,18.42
2018-11-06T19:30:58.007Z,17.60
2018-11-06T19:33:32.339Z,17.70
2018-11-06T19:36:06.856Z,21.77
2018-11-06T19:38:40.852Z,19.30
2018-11-06T19:41:14.766Z,16.80
2018-11-06T19:43:48.933Z,17.33
2018-11-06T19:46:22.962Z,17.80
2018-11-06T19:48:58.087Z,21.43
2018-11-06T19:51:31.393Z,18.00
2018-11-06T19:54:05.519Z,18.87
2018-11-06T19:56:39.615Z,17.80
2018-11-06T19:59:14.870Z,17.97
2018-11-06T20:01:48.506Z,14.47
2018-11-06T20:04:22.581Z,17.90
2018-11-06T20:06:57.147Z,16.10
2018-11-06T20:09:31.247Z,15.47
2018-11-06T20:12:06.385Z,15.90
2018-11-06T20:14:40.464Z,14.43
2018-11-06T20:17:16.570Z,16.25
2018-11-06T20:19:50.175Z,13.77
2018-11-06T20:22:24.003Z,13.77
2018-11-06T20:24:57.488Z,14.70
2018-11-06T20:27:31.330Z,12.90
2018-11-06T20:30:05.456Z,13.40
2018-11-06T20:32:38.796Z,18.27
2018-11-06T20:35:14.111Z,14.37
2018-11-06T20:37:49.512Z,13.00
2018-11-06T20:40:28.531Z,15.93
2018-11-06T20:43:02.661Z,16.97
2018-11-06T20:45:36.558Z,14.80
2018-11-06T20:48:10.717Z,17.13
2018-11-06T20:50:44.637Z,17.33
2018-11-06T20:53:18.166Z,14.57
2018-11-06T20:55:52.991Z,15.87
2018-11-06T20:58:26.898Z,15.53
2018-11-06T21:01:01.445Z,16.17
2018-11-06T21:03:36.276Z,16.73
2018-11-06T21:06:10.410Z,15.85
2018-11-06T21:08:44.334Z,15.13
2018-11-06T21:11:18.806Z,15.27
2018-11-06T21:13:52.728Z,15.47
2018-11-06T21:16:26.074Z,16.33
2018-11-06T21:18:59.857Z,17.33
2018-11-06T21:21:33.787Z,16.83
2018-11-06T21:24:07.615Z,17.80
2018-11-06T21:26:41.488Z,17.00
2018-11-06T21:29:15.436Z,18.33
2018-11-06T21:31:49.756Z,17.32
2018-11-06T21:34:23.461Z,16.83
2018-11-06T21:36:57.589Z,17.52
2018-11-06T21:39:34.457Z,19.03
2018-11-06T21:42:08.588Z,17.70
2018-11-06T21:49:42.056Z,17.70
2018-11-06T21:52:16.070Z,19.77
2018-11-06T21:54:51.169Z,20.43
2018-11-06T21:57:24.911Z,19.43
2018-11-06T21:59:59.037Z,19.23
2018-11-06T22:02:32.775Z,20.47
2018-11-06T22:05:06.621Z,18.80
2018-11-06T22:07:41.047Z,19.73
2018-11-06T22:10:16.731Z,23.83
2018-11-06T22:12:51.256Z,24.75
2018-11-06T22:15:25.278Z,23.70
2018-11-06T22:17:59.371Z,22.60
2018-11-06T22:20:32.819Z,20.47
2018-11-06T22:23:06.513Z,19.63
2018-11-06T22:25:40.732Z,21.60
2018-11-06T22:28:14.551Z,20.50
2018-11-06T22:30:48.477Z,19.50
2018-11-06T22:33:23.444Z,22.03
2018-11-06T22:35:57.566Z,22.42
2018-11-06T22:38:31.433Z,20.40
2018-11-06T22:41:09.289Z,19.87
2018-11-06T22:43:44.151Z,21.80
2018-11-06T22:46:18.273Z,21.90
2018-11-06T22:53:51.076Z,24.33
2018-11-06T22:56:24.718Z,22.58
2018-11-06T22:58:58.545Z,22.23
2018-11-06T23:01:32.299Z,24.00
2018-11-06T23:04:06.186Z,21.83
2018-11-06T23:06:39.948Z,22.27
2018-11-06T23:09:14.219Z,23.63
2018-11-06T23:11:48.539Z,23.63
2018-11-06T23:14:22.609Z,22.17
2018-11-06T23:16:56.865Z,17.83
2018-11-06T23:19:30.824Z,19.92
2018-11-06T23:22:05.890Z,20.30
2018-11-06T23:24:39.804Z,18.35
2018-11-06T23:27:13.868Z,17.05
2018-11-06T23:29:47.808Z,18.67
2018-11-06T23:32:23.004Z,19.13
2018-11-06T23:34:56.803Z,21.23
2018-11-06T23:37:30.979Z,23.07
2018-11-06T23:40:05.063Z,20.73
2018-11-06T23:42:40.101Z,20.40
2018-11-06T23:45:15.265Z,20.80
2018-11-06T23:47:49.946Z,18.20
2018-11-06T23:50:23.908Z,16.80
2018-11-06T23:52:57.835Z,18.90
2018-11-06T23:55:32.046Z,16.83
2018-11-06T23:58:06.145Z,15.57
